Time;durP1;ratioP1;P1;durP2;ratioP2;P2;SDS_P1;SDS_P2;PMS_P1;PMS_P2;Temp;Humidity;BMP_temperature;BMP_pressure;BME280_temperature;BME280_humidity;BME280_pressure;Samples;Min_cycle;Max_cycle;Signal;HPM_P1;HPM_P2
2022/10/10 00:00:40;;;;;;;3.57;2.47;;;10.40;99.90;;;;;;5015147;28;20225;-71
2022/10/10 00:03:06;;;;;;;3.30;2.60;;;10.40;99.90;;;;;;5009960;28;20240;-70
2022/10/10 00:05:33;;;;;;;2.70;2.17;;;10.40;99.90;;;;;;5011431;28;20460;-70
2022/10/10 00:07:59;;;;;;;2.90;2.60;;;10.40;99.90;;;;;;4989857;28;20460;-71
2022/10/10 00:10:25;;;;;;;3.30;2.00;;;10.40;99.90;;;;;;5016154;28;20463;-71
2022/10/10 00:12:51;;;;;;;3.93;2.87;;;10.40;99.90;;;;;;5009523;28;20463;-71
2022/10/10 00:15:17;;;;;;;3.13;2.80;;;10.40;99.90;;;;;;5011335;28;20843;-70
2022/10/10 00:17:43;;;;;;;2.60;2.40;;;10.20;99.90;;;;;;5004616;28;20481;-69
2022/10/10 00:20:11;;;;;;;4.47;3.20;;;10.20;99.90;;;;;;5007745;28;20453;-71
2022/10/10 00:22:36;;;;;;;2.60;2.40;;;10.20;99.90;;;;;;4986809;28;20457;-71
2022/10/10 00:25:03;;;;;;;7.17;2.50;;;10.20;99.90;;;;;;5007495;28;20453;-71
2022/10/10 00:27:29;;;;;;;2.70;2.50;;;10.20;99.90;;;;;;4990892;28;20217;-70
2022/10/10 00:29:55;;;;;;;2.67;2.47;;;10.20;99.90;;;;;;5004686;28;20828;-70
2022/10/10 00:32:20;;;;;;;4.30;2.70;;;10.20;99.90;;;;;;5003834;28;20241;-70
2022/10/10 00:34:46;;;;;;;3.97;2.87;;;10.20;99.90;;;;;;4997116;28;20253;-71
2022/10/10 00:37:12;;;;;;;3.90;2.70;;;10.20;99.90;;;;;;5005419;28;20243;-70
2022/10/10 00:39:37;;;;;;;3.73;2.70;;;10.10;99.90;;;;;;4982184;28;20210;-71
2022/10/10 00:42:03;;;;;;;5.73;2.57;;;10.10;99.90;;;;;;5016934;28;20272;-69
2022/10/10 00:44:29;;;;;;;2.87;2.37;;;10.00;99.90;;;;;;5002781;28;20220;-70
2022/10/10 00:46:54;;;;;;;3.17;2.70;;;9.80;99.90;;;;;;5003941;28;20217;-70
2022/10/10 00:49:25;;;;;;;3.17;2.60;;;9.80;99.90;;;;;;5007128;28;20355;-70
2022/10/10 00:51:55;;;;;;;3.90;2.70;;;9.90;99.90;;;;;;5020797;28;20290;-69
2022/10/10 00:54:22;;;;;;;2.67;2.47;;;9.90;99.90;;;;;;5004144;28;20460;-71
2022/10/10 00:56:57;;;;;;;3.60;2.77;;;10.00;99.90;;;;;;5009159;28;20448;-70
2022/10/10 00:59:24;;;;;;;4.60;3.40;;;9.80;99.90;;;;;;5008832;28;20517;-70
2022/10/10 01:01:50;;;;;;;5.13;2.60;;;9.80;99.90;;;;;;4993293;28;20541;-71
2022/10/10 01:04:48;;;;;;;3.93;2.90;;;9.80;99.90;;;;;;5007153;28;20972;-71
2022/10/10 01:07:26;;;;;;;3.20;2.40;;;9.90;99.90;;;;;;4985169;28;20220;-71
2022/10/10 01:09:56;;;;;;;2.57;2.37;;;9.80;99.90;;;;;;4996354;28;20540;-71
2022/10/10 01:12:46;;;;;;;4.37;2.37;;;9.80;99.90;;;;;;4990588;28;20463;-70
2022/10/10 01:15:25;;;;;;;2.40;2.20;;;9.80;99.90;;;;;;5004886;28;20456;-71
2022/10/10 01:18:26;;;;;;;3.43;2.13;;;9.70;99.90;;;;;;5020123;28;20478;-70
2022/10/10 01:21:19;;;;;;;3.10;2.70;;;9.70;99.90;;;;;;5006079;28;20689;-69
2022/10/10 01:24:06;;;;;;;2.60;2.40;;;9.80;99.90;;;;;;5000110;28;21004;-70
2022/10/10 01:26:59;;;;;;;4.83;3.30;;;9.80;99.90;;;;;;5006961;28;20450;-71
2022/10/10 01:29:30;;;;;;;3.33;2.13;;;9.70;99.90;;;;;;4991520;28;20477;-71
2022/10/10 01:32:04;;;;;;;4.27;3.00;;;9.60;99.90;;;;;;4993146;28;20456;-69
2022/10/10 01:34:35;;;;;;;2.33;2.00;;;9.50;99.90;;;;;;5012926;28;20470;-70
2022/10/10 01:37:20;;;;;;;3.07;2.40;;;9.50;99.90;;;;;;4998291;28;20456;-70
2022/10/10 01:39:59;;;;;;;3.00;2.70;;;9.60;99.90;;;;;;4997904;28;20481;-70
2022/10/10 01:42:29;;;;;;;2.60;2.40;;;9.60;99.90;;;;;;5005311;28;20516;-69
2022/10/10 01:44:55;;;;;;;3.43;2.83;;;9.40;99.90;;;;;;5013720;28;20456;-70
2022/10/10 01:47:21;;;;;;;3.47;2.60;;;9.20;99.90;;;;;;5024716;28;21107;-71
2022/10/10 01:49:51;;;;;;;3.90;2.60;;;9.30;99.90;;;;;;4992934;28;20601;-70
2022/10/10 01:52:54;;;;;;;2.83;2.57;;;9.40;99.90;;;;;;4979796;28;20457;-69
2022/10/10 01:55:31;;;;;;;2.40;2.10;;;9.50;99.90;;;;;;5017296;28;20487;-70
2022/10/10 01:58:18;;;;;;;2.50;1.90;;;9.50;99.90;;;;;;4992241;28;20480;-71
2022/10/10 02:00:57;;;;;;;3.33;2.80;;;9.50;99.90;;;;;;5013946;28;20468;-71
2022/10/10 02:03:29;;;;;;;3.30;2.77;;;9.30;99.90;;;;;;5010080;28;20467;-70
2022/10/10 02:05:55;;;;;;;2.73;2.53;;;9.30;99.90;;;;;;5008066;28;20483;-70
2022/10/10 02:08:44;;;;;;;3.27;2.83;;;9.40;99.90;;;;;;5014565;28;20988;-70
2022/10/10 02:11:11;;;;;;;4.40;2.60;;;9.40;99.90;;;;;;5008490;28;20708;-71
2022/10/10 02:13:50;;;;;;;2.50;2.30;;;9.40;99.90;;;;;;5007865;28;20455;-70
2022/10/10 02:16:37;;;;;;;3.67;2.80;;;9.40;99.90;;;;;;5011699;28;20541;-70
2022/10/10 02:19:07;;;;;;;2.43;2.27;;;9.50;99.90;;;;;;5001969;28;20502;-69
2022/10/10 02:21:33;;;;;;;2.83;2.37;;;9.50;99.90;;;;;;5026519;28;20849;-70
2022/10/10 02:24:05;;;;;;;4.00;2.40;;;9.50;99.90;;;;;;5002043;28;20518;-71
2022/10/10 02:26:32;;;;;;;5.07;2.63;;;9.50;99.90;;;;;;4992274;28;20559;-71
2022/10/10 02:29:03;;;;;;;3.90;2.93;;;9.40;99.90;;;;;;5022979;28;20470;-70
2022/10/10 02:31:43;;;;;;;2.83;2.63;;;9.50;99.90;;;;;;4993866;28;20506;-71
2022/10/10 02:34:23;;;;;;;2.77;2.23;;;9.50;99.90;;;;;;5005033;28;20459;-69
2022/10/10 02:36:52;;;;;;;4.70;2.37;;;9.30;99.90;;;;;;5013409;28;20456;-70
2022/10/10 02:39:22;;;;;;;3.17;2.73;;;9.30;99.90;;;;;;5000036;28;20491;-70
2022/10/10 02:41:49;;;;;;;3.77;2.70;;;9.30;99.90;;;;;;4994971;28;20458;-69
2022/10/10 02:44:16;;;;;;;4.03;2.57;;;9.20;99.90;;;;;;5008957;28;20448;-71
2022/10/10 02:46:41;;;;;;;2.70;2.50;;;9.30;99.90;;;;;;4990225;28;20484;-70
2022/10/10 02:49:08;;;;;;;3.57;2.90;;;9.30;99.90;;;;;;5016981;28;20509;-71
2022/10/10 02:51:34;;;;;;;2.93;2.67;;;9.30;99.90;;;;;;4998890;28;20213;-70
2022/10/10 02:54:00;;;;;;;2.30;2.10;;;9.30;99.90;;;;;;4988769;28;20996;-69
2022/10/10 02:56:25;;;;;;;3.20;2.50;;;9.30;99.90;;;;;;5022296;28;20466;-70
2022/10/10 02:58:51;;;;;;;3.27;2.57;;;9.30;99.90;;;;;;5004981;28;20242;-69
2022/10/10 03:01:17;;;;;;;1.87;1.77;;;9.30;99.90;;;;;;5007765;28;20217;-69
2022/10/10 03:03:42;;;;;;;2.57;2.20;;;9.30;99.90;;;;;;5020313;28;20220;-69
2022/10/10 03:06:08;;;;;;;3.40;2.20;;;9.30;99.90;;;;;;5019088;28;20567;-70
2022/10/10 03:08:37;;;;;;;7.87;2.37;;;9.30;99.90;;;;;;4994907;28;20244;-70
2022/10/10 03:11:03;;;;;;;2.30;2.10;;;9.30;99.90;;;;;;4989432;28;20260;-71
2022/10/10 03:13:29;;;;;;;2.20;2.00;;;9.30;99.90;;;;;;5013596;28;20499;-70
2022/10/10 03:15:55;;;;;;;2.60;2.40;;;9.30;99.90;;;;;;5008744;28;20493;-70
2022/10/10 03:18:21;;;;;;;4.10;2.80;;;9.30;99.90;;;;;;5011184;28;20230;-71
2022/10/10 03:20:52;;;;;;;3.10;2.63;;;9.30;99.90;;;;;;5005715;28;20244;-70
2022/10/10 03:23:18;;;;;;;2.60;2.40;;;9.30;99.90;;;;;;5016389;28;20270;-71
2022/10/10 03:25:44;;;;;;;2.37;2.17;;;9.20;99.90;;;;;;4995277;28;20468;-68
2022/10/10 03:28:11;;;;;;;14.43;3.27;;;9.20;99.90;;;;;;5006691;28;20509;-70
2022/10/10 03:30:38;;;;;;;3.10;2.80;;;9.20;99.90;;;;;;4995197;28;20476;-70
2022/10/10 03:33:05;;;;;;;2.53;2.33;;;9.20;99.90;;;;;;5013707;28;20460;-70
2022/10/10 03:35:30;;;;;;;4.10;2.60;;;9.20;99.90;;;;;;5009436;28;20468;-71
2022/10/10 03:37:57;;;;;;;3.53;3.17;;;9.20;99.90;;;;;;5008997;28;20483;-70
2022/10/10 03:40:23;;;;;;;5.67;3.23;;;9.20;99.90;;;;;;4994955;28;20217;-71
2022/10/10 03:42:48;;;;;;;3.33;3.03;;;9.20;99.90;;;;;;4988519;28;20884;-69
2022/10/10 03:45:14;;;;;;;3.90;3.40;;;9.20;99.90;;;;;;5022027;28;20547;-71
2022/10/10 03:47:40;;;;;;;4.23;2.87;;;9.10;99.90;;;;;;5012127;28;20623;-72
2022/10/10 03:50:06;;;;;;;2.83;2.63;;;9.10;99.90;;;;;;5010855;28;20717;-71
2022/10/10 03:52:32;;;;;;;3.20;2.87;;;9.10;99.90;;;;;;5012654;28;20236;-73
2022/10/10 03:54:57;;;;;;;3.53;3.10;;;9.10;99.90;;;;;;5005541;28;20495;-71
2022/10/10 03:57:23;;;;;;;3.60;2.53;;;9.10;99.90;;;;;;5014802;28;20231;-71
2022/10/10 03:59:49;;;;;;;4.87;3.27;;;9.10;99.90;;;;;;5010890;28;20747;-71
2022/10/10 04:02:14;;;;;;;4.03;3.63;;;9.00;99.90;;;;;;5008339;28;20209;-70
2022/10/10 04:04:40;;;;;;;3.50;3.20;;;9.00;99.90;;;;;;5004852;28;20732;-72
2022/10/10 04:07:06;;;;;;;7.10;4.20;;;9.00;99.90;;;;;;4990917;28;20721;-71
2022/10/10 04:09:31;;;;;;;4.67;4.17;;;9.00;99.90;;;;;;4998489;28;20209;-70
2022/10/10 04:11:58;;;;;;;4.33;3.40;;;9.00;99.90;;;;;;4997302;28;20591;-69
2022/10/10 04:14:24;;;;;;;4.60;3.87;;;9.00;99.90;;;;;;5006445;28;20597;-70
2022/10/10 04:16:49;;;;;;;6.77;3.80;;;9.00;99.90;;;;;;5010067;28;20456;-69
2022/10/10 04:19:15;;;;;;;4.60;3.87;;;8.90;99.90;;;;;;4991114;28;20261;-70
2022/10/10 04:21:41;;;;;;;4.37;3.93;;;8.90;99.90;;;;;;4992562;28;20220;-71
2022/10/10 04:24:07;;;;;;;5.33;3.80;;;8.90;99.90;;;;;;5010247;28;20460;-71
2022/10/10 04:26:32;;;;;;;5.63;3.90;;;8.90;99.90;;;;;;4992325;28;20293;-70
2022/10/10 04:28:59;;;;;;;6.10;3.57;;;8.90;99.90;;;;;;5006807;28;20253;-70
2022/10/10 04:31:24;;;;;;;7.10;3.20;;;8.90;99.90;;;;;;5000048;28;20220;-69
2022/10/10 04:33:50;;;;;;;4.20;3.80;;;8.90;99.90;;;;;;5004688;28;20452;-70
2022/10/10 04:36:16;;;;;;;4.33;2.67;;;8.80;99.90;;;;;;5008609;28;20274;-70
2022/10/10 04:38:42;;;;;;;2.97;2.67;;;8.80;99.90;;;;;;5008577;28;20252;-70
2022/10/10 04:41:08;;;;;;;4.23;3.87;;;8.80;99.90;;;;;;4991726;28;20272;-70
2022/10/10 04:43:34;;;;;;;3.70;3.40;;;8.80;99.90;;;;;;4996479;28;20507;-72
2022/10/10 04:45:59;;;;;;;6.17;3.90;;;8.80;99.90;;;;;;5000401;28;20476;-72
2022/10/10 04:48:25;;;;;;;8.30;5.37;;;8.70;99.90;;;;;;5005818;28;20221;-69
2022/10/10 04:50:56;;;;;;;10.37;5.80;;;8.60;99.90;;;;;;4990810;28;20225;-71
2022/10/10 04:53:22;;;;;;;6.37;4.97;;;8.70;99.90;;;;;;5007323;28;20231;-70
2022/10/10 04:55:48;;;;;;;5.77;3.80;;;8.70;99.90;;;;;;5019159;28;20488;-71
2022/10/10 04:58:14;;;;;;;4.30;3.40;;;8.60;99.90;;;;;;5007927;28;20478;-71
2022/10/10 05:00:40;;;;;;;3.67;3.10;;;8.60;99.90;;;;;;5005300;28;20217;-71
2022/10/10 05:03:08;;;;;;;4.57;3.53;;;8.70;99.90;;;;;;5011005;28;20238;-70
2022/10/10 05:05:34;;;;;;;4.23;3.57;;;8.70;99.90;;;;;;5007130;28;20463;-70
2022/10/10 05:07:59;;;;;;;5.40;3.77;;;8.70;99.90;;;;;;5005081;28;20530;-70
2022/10/10 05:10:25;;;;;;;3.83;3.43;;;8.60;99.90;;;;;;5014983;28;20213;-70
2022/10/10 05:12:51;;;;;;;6.27;3.37;;;8.60;99.90;;;;;;5005242;28;20585;-70
2022/10/10 05:15:17;;;;;;;3.23;2.70;;;8.60;99.90;;;;;;4996011;28;20225;-70
2022/10/10 05:17:43;;;;;;;4.20;3.30;;;8.60;99.90;;;;;;5015955;28;20232;-71
2022/10/10 05:20:09;;;;;;;5.83;3.63;;;8.60;99.90;;;;;;5019810;28;20517;-70
2022/10/10 05:22:35;;;;;;;5.43;4.50;;;8.50;99.90;;;;;;5023685;28;20240;-69
2022/10/10 05:25:01;;;;;;;5.47;4.17;;;8.60;99.90;;;;;;5007329;28;20486;-70
2022/10/10 05:27:27;;;;;;;4.10;3.70;;;8.60;99.90;;;;;;4941742;28;20225;-69
2022/10/10 05:29:54;;;;;;;4.80;4.07;;;8.50;99.90;;;;;;5006602;28;20522;-71
2022/10/10 05:32:21;;;;;;;6.60;4.03;;;8.50;99.90;;;;;;5008438;28;20452;-70
2022/10/10 05:34:47;;;;;;;6.30;4.60;;;8.50;99.90;;;;;;5015838;28;20456;-71
2022/10/10 05:37:13;;;;;;;4.73;3.77;;;8.50;99.90;;;;;;4997549;28;20551;-71
2022/10/10 05:39:39;;;;;;;6.90;4.23;;;8.50;99.90;;;;;;5000582;28;20213;-71
2022/10/10 05:42:05;;;;;;;8.33;4.47;;;8.50;99.90;;;;;;5002420;28;20811;-70
2022/10/10 05:44:32;;;;;;;8.87;4.43;;;8.50;99.90;;;;;;5008578;28;20517;-71
2022/10/10 05:46:58;;;;;;;6.07;4.60;;;8.50;99.90;;;;;;5011743;28;20264;-70
2022/10/10 05:49:23;;;;;;;5.50;4.50;;;8.40;99.90;;;;;;4996797;28;20457;-70
2022/10/10 05:51:49;;;;;;;6.37;4.80;;;8.40;99.90;;;;;;5011955;28;20460;-71
2022/10/10 05:54:15;;;;;;;7.50;4.90;;;8.30;99.90;;;;;;4995883;28;20217;-71
2022/10/10 05:56:40;;;;;;;8.80;4.80;;;8.30;99.90;;;;;;4994354;28;20224;-73
2022/10/10 05:59:06;;;;;;;6.40;5.00;;;8.40;99.90;;;;;;5019106;28;20279;-69
2022/10/10 06:01:32;;;;;;;7.57;4.73;;;8.40;99.90;;;;;;5012841;28;20228;-71
2022/10/10 06:03:58;;;;;;;6.67;5.20;;;8.40;99.90;;;;;;4996278;28;20276;-72
2022/10/10 06:06:24;;;;;;;7.07;4.53;;;8.40;99.90;;;;;;5021032;28;20598;-72
2022/10/10 06:08:51;;;;;;;6.63;5.33;;;8.40;99.90;;;;;;4994155;28;20221;-71
2022/10/10 06:11:18;;;;;;;5.50;4.70;;;8.30;99.90;;;;;;5018342;28;20466;-70
2022/10/10 06:13:44;;;;;;;9.00;4.40;;;8.30;99.90;;;;;;5010464;28;20451;-72
2022/10/10 06:16:10;;;;;;;5.03;4.53;;;8.30;99.90;;;;;;5017390;28;20519;-73
2022/10/10 06:18:36;;;;;;;8.43;4.63;;;8.30;99.90;;;;;;4983174;28;20899;-71
2022/10/10 06:21:04;;;;;;;4.77;4.07;;;8.40;99.90;;;;;;5014963;28;20712;-72
2022/10/10 06:23:30;;;;;;;5.13;4.63;;;8.40;99.90;;;;;;5000791;28;20936;-71
2022/10/10 06:25:56;;;;;;;5.30;4.50;;;8.30;99.90;;;;;;5014963;28;20463;-72
2022/10/10 06:28:22;;;;;;;5.53;5.03;;;8.30;99.90;;;;;;5002163;28;20466;-70
2022/10/10 06:30:49;;;;;;;6.40;4.97;;;8.30;99.90;;;;;;5003629;28;20697;-70
2022/10/10 06:33:17;;;;;;;7.13;5.70;;;8.30;99.90;;;;;;4996578;28;20299;-71
2022/10/10 06:35:46;;;;;;;4.80;4.30;;;8.30;99.90;;;;;;4990486;28;20468;-70
2022/10/10 06:38:13;;;;;;;7.47;4.63;;;8.30;99.90;;;;;;4991052;28;20975;-70
2022/10/10 06:40:39;;;;;;;4.97;4.30;;;8.30;99.90;;;;;;5014348;28;20810;-70
2022/10/10 06:43:10;;;;;;;6.03;5.17;;;8.30;99.90;;;;;;4993730;28;20460;-71
2022/10/10 06:45:37;;;;;;;5.20;4.27;;;8.30;99.90;;;;;;4993051;28;20468;-69
2022/10/10 06:48:03;;;;;;;7.63;4.40;;;8.30;99.90;;;;;;5008900;28;20459;-70
2022/10/10 06:50:29;;;;;;;4.83;3.77;;;8.40;99.90;;;;;;4995139;28;20590;-70
2022/10/10 06:52:54;;;;;;;4.57;4.10;;;8.40;99.90;;;;;;4991316;28;20468;-70
2022/10/10 06:55:20;;;;;;;5.57;4.37;;;8.40;99.90;;;;;;4992723;28;20253;-71
2022/10/10 06:57:46;;;;;;;6.27;4.33;;;8.40;99.90;;;;;;5000191;28;20278;-71
2022/10/10 07:00:12;;;;;;;5.50;4.17;;;8.40;99.90;;;;;;5011671;28;20225;-72
2022/10/10 07:02:39;;;;;;;6.63;4.40;;;8.50;99.90;;;;;;5012570;28;20563;-71
2022/10/10 07:05:16;;;;;;;5.37;4.87;;;8.50;99.90;;;;;;4992532;28;20464;-69
2022/10/10 07:07:43;;;;;;;5.60;4.13;;;8.50;99.90;;;;;;4995161;28;20500;-69
2022/10/10 07:10:11;;;;;;;11.57;4.80;;;8.50;99.90;;;;;;5013212;28;21032;-71
2022/10/10 07:12:38;;;;;;;6.60;4.20;;;8.50;99.90;;;;;;5006826;28;20464;-71
2022/10/10 07:15:05;;;;;;;4.77;4.37;;;8.50;99.90;;;;;;5002808;28;20464;-70
2022/10/10 07:17:31;;;;;;;6.73;4.60;;;8.50;99.90;;;;;;4999473;28;20539;-71
2022/10/10 07:19:57;;;;;;;7.20;4.80;;;8.60;99.90;;;;;;4996963;28;20461;-72
2022/10/10 07:22:22;;;;;;;5.90;4.33;;;8.60;99.90;;;;;;5003859;28;20275;-72
2022/10/10 07:24:48;;;;;;;5.23;4.33;;;8.60;99.90;;;;;;4994323;28;20321;-70
2022/10/10 07:27:14;;;;;;;4.90;4.47;;;8.60;99.90;;;;;;5009502;28;20266;-71
2022/10/10 07:29:40;;;;;;;6.27;5.07;;;8.60;99.90;;;;;;4996845;28;20302;-71
2022/10/10 07:32:06;;;;;;;6.87;4.10;;;8.60;99.90;;;;;;5018795;28;20221;-71
2022/10/10 07:34:34;;;;;;;9.20;4.57;;;8.70;99.90;;;;;;5012319;28;20472;-71
2022/10/10 07:37:00;;;;;;;8.97;4.80;;;8.70;99.90;;;;;;5009443;28;20864;-71
2022/10/10 07:39:25;;;;;;;8.03;5.00;;;8.70;99.90;;;;;;5006305;28;20468;-70
2022/10/10 07:41:51;;;;;;;4.80;4.20;;;8.70;99.90;;;;;;4996408;28;20761;-70
2022/10/10 07:44:17;;;;;;;11.30;5.07;;;8.80;99.90;;;;;;4998769;28;20220;-70
2022/10/10 07:46:43;;;;;;;4.17;3.80;;;8.80;99.90;;;;;;5005784;28;20232;-71
2022/10/10 07:49:09;;;;;;;8.40;5.43;;;8.80;99.90;;;;;;4991662;28;20970;-71
2022/10/10 07:51:35;;;;;;;8.23;6.27;;;8.90;99.90;;;;;;5009822;28;20476;-69
2022/10/10 07:54:01;;;;;;;9.70;5.50;;;9.00;99.90;;;;;;5010165;28;20464;-71
2022/10/10 07:56:27;;;;;;;6.53;5.23;;;9.00;99.90;;;;;;5008286;28;21023;-70
2022/10/10 07:58:53;;;;;;;7.53;5.77;;;9.00;99.90;;;;;;4989219;28;20236;-71
2022/10/10 08:01:19;;;;;;;5.77;4.43;;;9.10;99.90;;;;;;5009678;28;20216;-72
2022/10/10 08:03:46;;;;;;;5.87;4.70;;;9.10;99.90;;;;;;5003137;28;20228;-71
2022/10/10 08:06:14;;;;;;;5.67;5.00;;;9.10;99.90;;;;;;5012096;28;20487;-70
2022/10/10 08:08:41;;;;;;;6.10;4.30;;;9.20;99.90;;;;;;4987914;28;20484;-71
2022/10/10 08:11:08;;;;;;;6.20;4.00;;;9.20;99.90;;;;;;5007330;28;20524;-72
2022/10/10 08:13:36;;;;;;;6.33;4.13;;;9.20;99.90;;;;;;4991379;28;20474;-70
2022/10/10 08:16:02;;;;;;;4.30;3.90;;;9.30;99.90;;;;;;4999885;28;20468;-71
2022/10/10 08:18:28;;;;;;;4.37;3.97;;;9.30;99.90;;;;;;5007637;28;20485;-72
2022/10/10 08:21:03;;;;;;;3.80;3.30;;;9.40;99.90;;;;;;5006593;28;20521;-71
2022/10/10 08:23:29;;;;;;;9.13;4.20;;;9.40;99.90;;;;;;4997761;28;20545;-71
2022/10/10 08:25:58;;;;;;;5.37;4.13;;;9.40;99.90;;;;;;5006700;28;20561;-69
2022/10/10 08:28:25;;;;;;;6.60;4.23;;;9.50;99.90;;;;;;5004269;28;20693;-72
2022/10/10 08:30:50;;;;;;;5.77;3.90;;;9.50;99.90;;;;;;5008991;28;20513;-72
2022/10/10 08:33:16;;;;;;;5.57;3.70;;;9.60;99.90;;;;;;4990921;28;20488;-70
2022/10/10 08:35:42;;;;;;;8.63;4.10;;;9.60;99.90;;;;;;4986437;28;20225;-71
2022/10/10 08:38:08;;;;;;;5.30;4.30;;;9.70;99.90;;;;;;4990394;28;20232;-72
2022/10/10 08:40:42;;;;;;;4.77;3.87;;;9.80;99.90;;;;;;4996852;28;20249;-71
2022/10/10 08:43:15;;;;;;;4.50;3.73;;;9.80;99.90;;;;;;5013374;28;20527;-71
2022/10/10 08:45:41;;;;;;;4.67;3.90;;;9.90;99.90;;;;;;4998454;28;20467;-71
2022/10/10 08:48:12;;;;;;;5.13;4.07;;;10.00;99.90;;;;;;5005884;28;20787;-71
2022/10/10 08:50:53;;;;;;;7.00;5.30;;;10.00;99.90;;;;;;5010794;28;20303;-71
2022/10/10 08:53:18;;;;;;;8.30;4.87;;;10.10;99.90;;;;;;5012342;28;20451;-71
2022/10/10 08:55:45;;;;;;;5.70;4.53;;;10.20;99.90;;;;;;5006416;28;20469;-70
2022/10/10 08:58:17;;;;;;;6.20;5.13;;;10.30;99.90;;;;;;5004230;28;20237;-71
2022/10/10 09:01:08;;;;;;;5.27;4.70;;;10.40;99.90;;;;;;5008016;28;20598;-70
2022/10/10 09:03:42;;;;;;;4.80;4.20;;;10.40;99.90;;;;;;5003422;28;20460;-70
2022/10/10 09:06:29;;;;;;;6.27;4.67;;;10.50;99.90;;;;;;5010310;28;21033;-72
2022/10/10 09:09:14;;;;;;;10.77;4.80;;;10.70;99.90;;;;;;5007570;28;21004;-72
2022/10/10 09:12:03;;;;;;;10.80;4.37;;;10.90;99.90;;;;;;5017055;28;20958;-70
2022/10/10 09:14:44;;;;;;;7.90;5.37;;;11.00;99.90;;;;;;4983196;28;20475;-73
2022/10/10 09:17:19;;;;;;;8.57;5.03;;;11.10;99.90;;;;;;5006864;28;20464;-72
2022/10/10 09:20:01;;;;;;;6.60;4.40;;;11.20;99.90;;;;;;5004205;28;20554;-70
2022/10/10 09:22:32;;;;;;;7.03;4.53;;;11.30;99.90;;;;;;5011353;28;20461;-73
2022/10/10 09:25:22;;;;;;;7.30;4.30;;;11.40;99.90;;;;;;4999873;28;20590;-72
2022/10/10 09:28:04;;;;;;;5.97;4.73;;;11.50;99.90;;;;;;5009355;28;20467;-72
2022/10/10 09:30:34;;;;;;;8.03;4.47;;;11.70;99.90;;;;;;5007998;28;20459;-71
2022/10/10 09:33:20;;;;;;;6.27;4.73;;;11.80;99.90;;;;;;5008714;28;20544;-70
2022/10/10 09:35:48;;;;;;;5.23;4.50;;;11.90;99.90;;;;;;4999247;28;20546;-71
2022/10/10 09:38:45;;;;;;;8.50;5.10;;;12.10;99.90;;;;;;4987135;28;20496;-72
2022/10/10 09:41:17;;;;;;;8.20;4.70;;;12.20;99.90;;;;;;5026363;28;20473;-72
2022/10/10 09:43:43;;;;;;;7.60;4.83;;;12.40;99.90;;;;;;4999896;28;20519;-70
2022/10/10 09:46:09;;;;;;;6.70;4.50;;;12.50;99.90;;;;;;5008675;28;20969;-69
2022/10/10 09:48:41;;;;;;;4.70;4.20;;;12.70;99.90;;;;;;5011416;28;20308;-71
2022/10/10 09:51:15;;;;;;;7.43;5.13;;;12.80;99.90;;;;;;4998593;28;20462;-68
2022/10/10 09:53:43;;;;;;;6.70;4.17;;;12.80;99.90;;;;;;5004025;28;20478;-71
2022/10/10 09:56:32;;;;;;;6.37;4.43;;;12.90;99.90;;;;;;4994599;28;20955;-70
2022/10/10 09:58:58;;;;;;;7.60;5.17;;;13.00;99.90;;;;;;4998098;28;20475;-71
2022/10/10 10:01:32;;;;;;;7.10;4.27;;;13.00;99.90;;;;;;5007022;28;20559;-71
2022/10/10 10:04:19;;;;;;;4.43;4.03;;;13.20;99.90;;;;;;5005774;28;20216;-72
2022/10/10 10:06:48;;;;;;;4.50;3.30;;;13.40;99.90;;;;;;5008739;28;20456;-70
2022/10/10 10:09:20;;;;;;;5.00;4.10;;;13.60;99.90;;;;;;4994946;28;20531;-71
2022/10/10 10:11:48;;;;;;;5.07;3.60;;;13.90;99.90;;;;;;5007026;28;20472;-69
2022/10/10 10:14:36;;;;;;;5.50;4.07;;;14.00;99.90;;;;;;5001985;28;20561;-69
2022/10/10 10:17:13;;;;;;;8.20;5.53;;;14.10;99.90;;;;;;4995772;28;20987;-71
2022/10/10 10:19:44;;;;;;;10.30;6.70;;;14.20;99.90;;;;;;5001089;28;20512;-71
2022/10/10 10:22:38;;;;;;;60.77;27.70;;;14.30;99.90;;;;;;5013171;28;20464;-71
2022/10/10 10:25:28;;;;;;;43.60;19.83;;;14.30;99.90;;;;;;4996071;28;20463;-69
2022/10/10 10:28:14;;;;;;;33.10;15.97;;;14.40;99.90;;;;;;4995140;28;20476;-71
2022/10/10 10:30:42;;;;;;;51.27;21.17;;;14.50;99.90;;;;;;5012462;28;20470;-70
2022/10/10 10:33:08;;;;;;;45.17;25.30;;;14.60;99.90;;;;;;5000893;28;20866;-68
2022/10/10 10:35:48;;;;;;;30.90;14.60;;;14.80;99.90;;;;;;4993126;28;20474;-70
2022/10/10 10:38:56;;;;;;;15.57;11.03;;;15.10;99.90;;;;;;4992616;28;20288;-72
2022/10/10 10:41:41;;;;;;;15.47;8.00;;;15.30;99.90;;;;;;4968916;28;20468;-71
2022/10/10 10:44:25;;;;;;;7.90;5.73;;;15.60;99.90;;;;;;5015607;28;20466;-70
2022/10/10 10:47:10;;;;;;;8.30;4.27;;;15.80;99.90;;;;;;5012221;28;20459;-70
2022/10/10 10:49:51;;;;;;;10.10;4.50;;;16.20;99.90;;;;;;4975756;28;20465;-71
2022/10/10 10:52:47;;;;;;;4.90;4.40;;;16.50;99.90;;;;;;5029582;28;20467;-71
2022/10/10 10:55:40;;;;;;;4.80;3.93;;;16.70;99.90;;;;;;5003448;28;20468;-70
2022/10/10 10:58:23;;;;;;;5.70;3.97;;;16.70;99.90;;;;;;5015763;28;20474;-71
2022/10/10 11:01:01;;;;;;;8.43;4.63;;;16.80;99.90;;;;;;5014313;28;20539;-70
2022/10/10 11:03:44;;;;;;;8.00;3.80;;;16.90;99.90;;;;;;4998419;28;21006;-69
2022/10/10 11:06:46;;;;;;;4.27;3.80;;;17.00;99.90;;;;;;5010373;28;20455;-71
2022/10/10 11:09:17;;;;;;;3.90;3.50;;;17.00;99.90;;;;;;5007299;28;20577;-70
2022/10/10 11:12:04;;;;;;;5.17;3.90;;;17.20;99.90;;;;;;4994335;28;20471;-69
2022/10/10 11:14:46;;;;;;;6.93;4.57;;;17.20;99.90;;;;;;5007883;28;20451;-72
2022/10/10 11:17:36;;;;;;;6.30;4.17;;;17.60;99.90;;;;;;5009567;28;20472;-70
2022/10/10 11:20:18;;;;;;;7.20;4.70;;;18.00;99.90;;;;;;4973174;28;20457;-70
2022/10/10 11:23:00;;;;;;;4.80;4.27;;;18.10;99.90;;;;;;5007394;28;20455;-70
2022/10/10 11:25:31;;;;;;;6.30;4.30;;;18.10;99.90;;;;;;4996451;28;20456;-71
2022/10/10 11:28:08;;;;;;;5.00;4.37;;;18.10;99.90;;;;;;5004977;28;20463;-72
2022/10/10 11:30:41;;;;;;;4.70;4.00;;;18.10;99.90;;;;;;4998274;28;20456;-71
2022/10/10 11:33:21;;;;;;;5.87;4.77;;;18.30;99.90;;;;;;4998599;28;20487;-70
2022/10/10 11:36:01;;;;;;;5.27;4.77;;;18.50;99.90;;;;;;5006193;28;20472;-71
2022/10/10 11:38:48;;;;;;;6.20;4.60;;;18.50;99.90;;;;;;5009420;28;20486;-71
2022/10/10 11:41:37;;;;;;;5.50;4.50;;;18.50;99.90;;;;;;5005775;28;20533;-72
2022/10/10 11:44:56;;;;;;;5.87;3.53;;;18.60;99.90;;;;;;5008643;28;20568;-71
2022/10/10 11:47:36;;;;;;;9.60;4.30;;;19.00;99.90;;;;;;4955090;28;20841;-71
2022/10/10 11:50:02;;;;;;;4.00;3.70;;;19.20;99.90;;;;;;4979813;28;20468;-70
2022/10/10 11:52:43;;;;;;;6.43;3.97;;;19.30;99.90;;;;;;4989675;28;20459;-72
2022/10/10 11:55:32;;;;;;;5.40;3.80;;;19.50;99.90;;;;;;5027062;28;20689;-72
2022/10/10 11:58:04;;;;;;;6.17;4.10;;;19.50;99.90;;;;;;4984885;28;20472;-71
2022/10/10 12:00:42;;;;;;;5.57;4.77;;;19.50;99.90;;;;;;5011305;28;20546;-71
2022/10/10 12:03:08;;;;;;;36.40;24.73;;;19.50;99.90;;;;;;5011776;28;20870;-72
2022/10/10 12:05:37;;;;;;;28.47;20.40;;;19.50;99.90;;;;;;4996012;28;20926;-71
2022/10/10 12:08:18;;;;;;;18.00;11.63;;;19.50;99.90;;;;;;4997797;28;20480;-72
2022/10/10 12:11:15;;;;;;;13.33;8.47;;;19.60;99.90;;;;;;5011450;28;20459;-72
2022/10/10 12:13:48;;;;;;;16.60;10.60;;;19.50;99.90;;;;;;5012248;28;20512;-70
2022/10/10 12:16:18;;;;;;;29.50;18.07;;;19.60;99.90;;;;;;5010531;28;20528;-70
2022/10/10 12:18:55;;;;;;;24.27;18.00;;;19.70;99.90;;;;;;5003633;28;20472;-71
2022/10/10 12:21:24;;;;;;;17.97;14.73;;;19.70;99.90;;;;;;5014536;28;20462;-72
2022/10/10 12:24:19;;;;;;;17.90;12.73;;;19.70;99.90;;;;;;4998527;28;20885;-69
2022/10/10 12:26:54;;;;;;;10.67;9.53;;;19.80;99.90;;;;;;5014144;28;20470;-69
2022/10/10 12:29:56;;;;;;;9.67;8.23;;;19.80;99.90;;;;;;4975819;28;20469;-71
2022/10/10 12:32:22;;;;;;;8.70;7.03;;;19.80;99.90;;;;;;5003193;28;20459;-71
2022/10/10 12:34:47;;;;;;;6.93;5.67;;;19.80;99.90;;;;;;5007661;28;20482;-70
2022/10/10 12:37:30;;;;;;;9.70;5.50;;;19.80;99.90;;;;;;5009471;28;20225;-72
2022/10/10 12:40:05;;;;;;;4.80;4.30;;;19.90;99.90;;;;;;5012073;28;20217;-70
2022/10/10 12:42:38;;;;;;;26.27;17.43;;;20.00;99.90;;;;;;5011670;28;20450;-71
2022/10/10 12:45:29;;;;;;;27.07;17.03;;;20.10;99.90;;;;;;5008198;28;20479;-71
2022/10/10 12:47:56;;;;;;;19.77;12.50;;;20.50;99.90;;;;;;5028624;28;20542;-71
2022/10/10 12:50:34;;;;;;;16.57;11.77;;;20.50;99.90;;;;;;5001969;28;20836;-71
2022/10/10 12:53:28;;;;;;;20.93;15.97;;;20.50;99.90;;;;;;5005902;28;20456;-69
2022/10/10 12:55:57;;;;;;;15.07;13.47;;;20.40;99.90;;;;;;5004333;28;20538;-72
2022/10/10 12:58:38;;;;;;;12.70;10.50;;;20.40;99.90;;;;;;4995631;28;20471;-72
2022/10/10 13:01:20;;;;;;;7.67;6.87;;;20.40;99.90;;;;;;5007623;28;20443;-72
2022/10/10 13:03:48;;;;;;;5.27;4.40;;;20.40;99.90;;;;;;4984440;28;20534;-72
2022/10/10 13:06:29;;;;;;;8.90;4.43;;;20.50;99.90;;;;;;5015953;28;20505;-70
2022/10/10 13:08:55;;;;;;;8.70;4.37;;;20.50;99.90;;;;;;4996441;28;20975;-70
2022/10/10 13:11:21;;;;;;;5.63;3.73;;;20.50;99.90;;;;;;4989006;28;20461;-71
2022/10/10 13:13:54;;;;;;;6.30;3.67;;;20.50;99.90;;;;;;4996510;28;20474;-71